Terminal Aerodrome Forecast
Issued by NWS

Home | Current Version | Previous Version | Text Only | Print | Product List | Glossary On
Versions: 1 2 3 4 5 6 7 8 9 10 11 12 13 14 15 16 17 18 19 20 21 22 23 24 25 26 27 28 29 30 31 32 33 34 35 36
000
FTUS43 KEAX 161726
TAFIXD
TAF
KIXD 161726Z 1618/1718 09006KT 2SM BR OVC004
      TEMPO 1618/1619 1SM BR OVC002
     FM161900 08007KT 5SM BR OVC008
     FM170100 07006KT 2SM BR OVC003
     FM170400 05005KT 1SM -FZDZ BR OVC002
     FM170900 36004KT 2SM -DZ BR OVC004=

USA.gov is the U.S. government's official web portal to all federal, state and local government web resources and services.